Time;durP1;ratioP1;P1;durP2;ratioP2;P2;SDS_P1;SDS_P2;PMS_P1;PMS_P2;Temp;Humidity;BMP_temperature;BMP_pressure;BME280_temperature;BME280_humidity;BME280_pressure;Samples;Min_cycle;Max_cycle;Signal;HPM_P1;HPM_P2
2023/08/23 00:00:41;;;;;;;;;;;;;;;;;;1888894;28;7024;-70
2023/08/23 00:01:38;;;;;;;;;;;;;;;;;;1888753;28;8087;-67
2023/08/23 00:02:36;;;;;;;;;;;;;;;;;;1889401;28;7014;-68
2023/08/23 00:03:33;;;;;;;;;;;;;;;;;;1890038;28;7335;-68
2023/08/23 00:04:34;;;;;;;;;;;;;;;;;;1887184;28;7021;-68
2023/08/23 00:05:32;;;;;;;;;;;;;;;;;;1887969;28;7010;-68
2023/08/23 00:06:29;;;;;;;;;;;;;;;;;;1888667;28;8123;-68
2023/08/23 00:07:27;;;;;;;;;;;;;;;;;;1888702;28;7088;-69
2023/08/23 00:08:24;;;;;;;;;;;;;;;;;;1889449;28;7013;-71
2023/08/23 00:09:22;;;;;;;;;;;;;;;;;;1889270;28;7010;-70
2023/08/23 00:10:19;;;;;;;;;;;;;;;;;;1889557;28;7014;-68
2023/08/23 00:11:17;;;;;;;;;;;;;;;;;;1888795;28;7096;-69
2023/08/23 00:12:15;;;;;;;;;;;;;;;;;;1888712;28;7039;-69
2023/08/23 00:13:12;;;;;;;;;;;;;;;;;;1888902;28;7014;-68
2023/08/23 00:14:09;;;;;;;;;;;;;;;;;;1888967;28;8096;-68
2023/08/23 00:15:07;;;;;;;;;;;;;;;;;;1888613;28;7010;-68
2023/08/23 00:16:05;;;;;;;;;;;;;;;;;;1888381;28;7124;-69
2023/08/23 00:17:02;;;;;;;;;;;;;;;;;;1889657;28;7013;-69
2023/08/23 00:18:00;;;;;;;;;;;;;;;;;;1885742;28;7042;-69
2023/08/23 00:18:57;;;;;;;;;;;;;;;;;;1887237;28;7013;-68
2023/08/23 00:19:54;;;;;;;;;;;;;;;;;;1888501;28;7100;-70
2023/08/23 00:20:52;;;;;;;;;;;;;;;;;;1889034;28;7109;-69
2023/08/23 00:21:49;;;;;;;;;;;;;;;;;;1889221;28;7050;-69
2023/08/23 00:22:47;;;;;;;;;;;;;;;;;;1889403;28;7014;-69
2023/08/23 00:23:44;;;;;;;;;;;;;;;;;;1889039;28;7121;-69
2023/08/23 00:24:41;;;;;;;;;;;;;;;;;;1888681;28;7096;-70
2023/08/23 00:25:39;;;;;;;;;;;;;;;;;;1881267;28;7009;-69
2023/08/23 00:26:36;;;;;;;;;;;;;;;;;;1880974;28;7006;-68
2023/08/23 00:27:34;;;;;;;;;;;;;;;;;;1888194;28;7125;-68
2023/08/23 00:28:31;;;;;;;;;;;;;;;;;;1888636;28;7010;-69
2023/08/23 00:29:28;;;;;;;;;;;;;;;;;;1888578;28;7009;-69
2023/08/23 00:30:26;;;;;;;;;;;;;;;;;;1881990;28;7317;-68
2023/08/23 00:31:23;;;;;;;;;;;;;;;;;;1880241;28;7116;-69
2023/08/23 00:32:21;;;;;;;;;;;;;;;;;;1889311;28;7014;-69
2023/08/23 00:33:18;;;;;;;;;;;;;;;;;;1890375;28;7092;-68
2023/08/23 00:34:16;;;;;;;;;;;;;;;;;;1890301;28;7443;-68
2023/08/23 00:35:13;;;;;;;;;;;;;;;;;;1890409;28;7005;-69
2023/08/23 00:36:10;;;;;;;;;;;;;;;;;;1887330;28;8092;-71
2023/08/23 00:37:08;;;;;;;;;;;;;;;;;;1889654;28;7126;-69
2023/08/23 00:38:05;;;;;;;;;;;;;;;;;;1890590;28;7046;-68
2023/08/23 00:39:03;;;;;;;;;;;;;;;;;;1890017;28;7017;-69
2023/08/23 00:40:00;;;;;;;;;;;;;;;;;;1890266;28;8106;-71
2023/08/23 00:41:01;;;;;;;;;;;;;;;;;;1890067;28;7046;-70
2023/08/23 00:41:58;;;;;;;;;;;;;;;;;;1890009;28;7113;-68
2023/08/23 00:42:56;;;;;;;;;;;;;;;;;;1888321;28;7002;-68
2023/08/23 00:43:53;;;;;;;;;;;;;;;;;;1891197;28;7112;-68
2023/08/23 00:44:50;;;;;;;;;;;;;;;;;;1889605;28;7006;-68
2023/08/23 00:45:48;;;;;;;;;;;;;;;;;;1889890;28;7092;-69
2023/08/23 00:46:46;;;;;;;;;;;;;;;;;;1890343;28;7009;-69
2023/08/23 00:47:45;;;;;;;;;;;;;;;;;;1888171;28;7005;-69
2023/08/23 00:48:44;;;;;;;;;;;;;;;;;;1890003;28;8043;-69
2023/08/23 00:49:42;;;;;;;;;;;;;;;;;;1890277;28;7096;-69
2023/08/23 00:50:41;;;;;;;;;;;;;;;;;;1890848;28;7042;-67
2023/08/23 00:51:39;;;;;;;;;;;;;;;;;;1890387;28;8039;-70
2023/08/23 00:52:37;;;;;;;;;;;;;;;;;;1889202;28;7113;-69
2023/08/23 00:53:48;;;;;;;;;;;;;;;;;;1888253;28;7145;-70
2023/08/23 00:54:46;;;;;;;;;;;;;;;;;;1890768;28;7089;-67
2023/08/23 00:55:44;;;;;;;;;;;;;;;;;;1889740;28;7002;-69
2023/08/23 00:56:42;;;;;;;;;;;;;;;;;;1890004;28;7006;-68
2023/08/23 00:57:39;;;;;;;;;;;;;;;;;;1889978;28;7026;-69
2023/08/23 00:58:37;;;;;;;;;;;;;;;;;;1890226;28;7046;-68
2023/08/23 00:59:35;;;;;;;;;;;;;;;;;;1890227;28;8088;-69
2023/08/23 01:00:33;;;;;;;;;;;;;;;;;;1887467;28;7038;-69
2023/08/23 01:01:31;;;;;;;;;;;;;;;;;;1884655;28;7022;-69
2023/08/23 01:02:28;;;;;;;;;;;;;;;;;;1885372;28;7348;-70
2023/08/23 01:03:26;;;;;;;;;;;;;;;;;;1890111;28;7009;-69
2023/08/23 01:04:23;;;;;;;;;;;;;;;;;;1889869;28;7393;-68
2023/08/23 01:05:27;;;;;;;;;;;;;;;;;;1889984;28;7009;-68
2023/08/23 01:06:46;;;;;;;;;;;;;;;;;;1890364;28;7010;-69
2023/08/23 01:07:56;;;;;;;;;;;;;;;;;;1890852;28;7046;-70
2023/08/23 01:09:05;;;;;;;;;;;;;;;;;;1889732;28;7013;-67
2023/08/23 01:10:12;;;;;;;;;;;;;;;;;;1890073;28;7050;-69
2023/08/23 01:11:14;;;;;;;;;;;;;;;;;;1888942;28;7050;-69
2023/08/23 01:12:14;;;;;;;;;;;;;;;;;;1889271;28;7085;-68
2023/08/23 01:13:17;;;;;;;;;;;;;;;;;;1890616;28;7097;-68
2023/08/23 01:14:32;;;;;;;;;;;;;;;;;;1890290;28;7117;-69
2023/08/23 01:15:30;;;;;;;;;;;;;;;;;;1889994;28;8557;-68
2023/08/23 01:16:29;;;;;;;;;;;;;;;;;;1889779;28;7006;-68
2023/08/23 01:17:29;;;;;;;;;;;;;;;;;;1890059;28;7316;-68
2023/08/23 01:18:28;;;;;;;;;;;;;;;;;;1890031;28;7013;-69
2023/08/23 01:19:40;;;;;;;;;;;;;;;;;;1890464;28;7013;-68
2023/08/23 01:20:38;;;;;;;;;;;;;;;;;;1890541;28;7005;-69
2023/08/23 01:21:42;;;;;;;;;;;;;;;;;;1889551;28;7137;-68
2023/08/23 01:22:44;;;;;;;;;;;;;;;;;;1888829;28;7153;-68
2023/08/23 01:23:42;;;;;;;;;;;;;;;;;;1889995;28;7113;-69
2023/08/23 01:24:40;;;;;;;;;;;;;;;;;;1890035;28;7288;-68
2023/08/23 01:25:42;;;;;;;;;;;;;;;;;;1889877;28;7097;-68
2023/08/23 01:26:43;;;;;;;;;;;;;;;;;;1890267;28;7009;-70
2023/08/23 01:27:40;;;;;;;;;;;;;;;;;;1890699;28;7010;-69
2023/08/23 01:28:53;;;;;;;;;;;;;;;;;;1889158;28;7029;-69
2023/08/23 01:29:50;;;;;;;;;;;;;;;;;;1888942;28;7112;-70
2023/08/23 01:30:49;;;;;;;;;;;;;;;;;;1890191;28;7097;-69
2023/08/23 01:31:51;;;;;;;;;;;;;;;;;;1890238;28;7017;-69
2023/08/23 01:32:55;;;;;;;;;;;;;;;;;;1888418;28;7148;-68
2023/08/23 01:33:59;;;;;;;;;;;;;;;;;;1889696;28;7014;-68
2023/08/23 01:35:06;;;;;;;;;;;;;;;;;;1889703;28;7038;-70
2023/08/23 01:36:25;;;;;;;;;;;;;;;;;;1885757;28;7006;-69
2023/08/23 01:37:24;;;;;;;;;;;;;;;;;;1890560;28;7006;-69
2023/08/23 01:38:22;;;;;;;;;;;;;;;;;;1889891;28;7010;-68
2023/08/23 01:39:22;;;;;;;;;;;;;;;;;;1889887;28;8046;-68
2023/08/23 01:40:20;;;;;;;;;;;;;;;;;;1889515;28;8044;-70
2023/08/23 01:41:17;;;;;;;;;;;;;;;;;;1889907;28;8047;-70
2023/08/23 01:42:15;;;;;;;;;;;;;;;;;;1889634;28;7351;-68
2023/08/23 01:43:12;;;;;;;;;;;;;;;;;;1890088;28;7106;-68
2023/08/23 01:44:10;;;;;;;;;;;;;;;;;;1890255;28;7014;-69
2023/08/23 01:45:07;;;;;;;;;;;;;;;;;;1889890;28;7041;-68
2023/08/23 01:46:05;;;;;;;;;;;;;;;;;;1889630;28;7117;-69
2023/08/23 01:47:02;;;;;;;;;;;;;;;;;;1890142;28;7021;-69
2023/08/23 01:48:00;;;;;;;;;;;;;;;;;;1885988;28;7018;-69
2023/08/23 01:48:57;;;;;;;;;;;;;;;;;;1889680;28;7336;-70
2023/08/23 01:49:55;;;;;;;;;;;;;;;;;;1888992;28;7112;-69
2023/08/23 01:50:52;;;;;;;;;;;;;;;;;;1889960;28;7021;-68
2023/08/23 01:51:50;;;;;;;;;;;;;;;;;;1889705;28;7046;-69
2023/08/23 01:52:47;;;;;;;;;;;;;;;;;;1889939;28;7010;-68
2023/08/23 01:53:44;;;;;;;;;;;;;;;;;;1889232;28;7038;-69
2023/08/23 01:54:42;;;;;;;;;;;;;;;;;;1890060;28;7340;-70
2023/08/23 01:55:42;;;;;;;;;;;;;;;;;;1889508;28;8055;-68
2023/08/23 01:56:39;;;;;;;;;;;;;;;;;;1889804;28;7113;-68
2023/08/23 01:57:38;;;;;;;;;;;;;;;;;;1889708;28;7001;-69
2023/08/23 01:58:36;;;;;;;;;;;;;;;;;;1890316;28;7097;-68
2023/08/23 01:59:33;;;;;;;;;;;;;;;;;;1881431;28;7795;-70
2023/08/23 02:00:31;;;;;;;;;;;;;;;;;;1874562;28;7006;-69
2023/08/23 02:01:28;;;;;;;;;;;;;;;;;;1881095;28;7217;-69
2023/08/23 02:02:26;;;;;;;;;;;;;;;;;;1880353;28;7793;-69
2023/08/23 02:03:23;;;;;;;;;;;;;;;;;;1874561;28;7184;-69
2023/08/23 02:04:21;;;;;;;;;;;;;;;;;;1879327;28;7006;-69
2023/08/23 02:05:18;;;;;;;;;;;;;;;;;;1884974;28;7010;-69
2023/08/23 02:06:16;;;;;;;;;;;;;;;;;;1888584;28;7009;-69
2023/08/23 02:07:13;;;;;;;;;;;;;;;;;;1889835;28;7010;-68
2023/08/23 02:08:11;;;;;;;;;;;;;;;;;;1889824;28;7080;-69
2023/08/23 02:09:08;;;;;;;;;;;;;;;;;;1889636;28;7384;-68
2023/08/23 02:10:06;;;;;;;;;;;;;;;;;;1889406;28;8044;-68
2023/08/23 02:11:04;;;;;;;;;;;;;;;;;;1889633;28;7039;-69
2023/08/23 02:12:01;;;;;;;;;;;;;;;;;;1890006;28;7021;-68
2023/08/23 02:12:59;;;;;;;;;;;;;;;;;;1889559;28;7014;-68
2023/08/23 02:13:57;;;;;;;;;;;;;;;;;;1889609;28;7002;-69
2023/08/23 02:14:54;;;;;;;;;;;;;;;;;;1889271;28;7014;-69
2023/08/23 02:15:52;;;;;;;;;;;;;;;;;;1889780;28;7088;-70
2023/08/23 02:16:49;;;;;;;;;;;;;;;;;;1890479;28;7189;-68
2023/08/23 02:17:47;;;;;;;;;;;;;;;;;;1885493;28;7380;-68
2023/08/23 02:18:45;;;;;;;;;;;;;;;;;;1888699;28;8133;-70
2023/08/23 02:19:42;;;;;;;;;;;;;;;;;;1889456;28;7088;-68
2023/08/23 02:20:39;;;;;;;;;;;;;;;;;;1889691;28;7025;-69
2023/08/23 02:21:37;;;;;;;;;;;;;;;;;;1889802;28;7109;-68
2023/08/23 02:22:34;;;;;;;;;;;;;;;;;;1889620;28;7377;-68
2023/08/23 02:23:32;;;;;;;;;;;;;;;;;;1889355;28;7029;-69
2023/08/23 02:24:29;;;;;;;;;;;;;;;;;;1889169;28;7120;-69
2023/08/23 02:25:27;;;;;;;;;;;;;;;;;;1890281;28;7014;-69
2023/08/23 02:26:24;;;;;;;;;;;;;;;;;;1890138;28;7009;-69
2023/08/23 02:27:21;;;;;;;;;;;;;;;;;;1887953;28;7021;-70
2023/08/23 02:28:19;;;;;;;;;;;;;;;;;;1889573;28;7014;-68
2023/08/23 02:29:16;;;;;;;;;;;;;;;;;;1889009;28;7096;-69
2023/08/23 02:30:14;;;;;;;;;;;;;;;;;;1890227;28;7017;-69
2023/08/23 02:31:11;;;;;;;;;;;;;;;;;;1888496;28;7105;-69
2023/08/23 02:32:09;;;;;;;;;;;;;;;;;;1890172;28;7098;-68
2023/08/23 02:33:06;;;;;;;;;;;;;;;;;;1889463;28;7010;-68
2023/08/23 02:34:04;;;;;;;;;;;;;;;;;;1889041;28;7025;-71
2023/08/23 02:35:02;;;;;;;;;;;;;;;;;;1886417;28;7014;-68
2023/08/23 02:35:59;;;;;;;;;;;;;;;;;;1887823;28;7105;-69
2023/08/23 02:36:56;;;;;;;;;;;;;;;;;;1889236;28;7317;-68
2023/08/23 02:37:54;;;;;;;;;;;;;;;;;;1881050;28;7129;-68
2023/08/23 02:38:53;;;;;;;;;;;;;;;;;;1882396;28;7088;-69
2023/08/23 02:39:50;;;;;;;;;;;;;;;;;;1887636;28;7010;-69
2023/08/23 02:40:48;;;;;;;;;;;;;;;;;;1889553;28;7010;-69
2023/08/23 02:41:45;;;;;;;;;;;;;;;;;;1888826;28;7073;-69
2023/08/23 02:42:43;;;;;;;;;;;;;;;;;;1887331;28;7010;-68
2023/08/23 02:43:40;;;;;;;;;;;;;;;;;;1881680;28;7167;-68
2023/08/23 02:44:38;;;;;;;;;;;;;;;;;;1881947;28;7046;-70
2023/08/23 02:45:41;;;;;;;;;;;;;;;;;;1889240;28;7042;-68
2023/08/23 02:46:39;;;;;;;;;;;;;;;;;;1889788;28;7113;-69
2023/08/23 02:47:36;;;;;;;;;;;;;;;;;;1886474;28;7050;-69
2023/08/23 02:48:34;;;;;;;;;;;;;;;;;;1881079;28;7046;-69
2023/08/23 02:49:31;;;;;;;;;;;;;;;;;;1874002;28;7096;-68
2023/08/23 02:50:29;;;;;;;;;;;;;;;;;;1878764;28;7013;-70
2023/08/23 02:51:26;;;;;;;;;;;;;;;;;;1888254;28;7097;-69
2023/08/23 02:52:24;;;;;;;;;;;;;;;;;;1889295;28;7049;-69
2023/08/23 02:53:21;;;;;;;;;;;;;;;;;;1889492;28;7076;-70
2023/08/23 02:54:18;;;;;;;;;;;;;;;;;;1888346;28;7397;-69
2023/08/23 02:55:16;;;;;;;;;;;;;;;;;;1889493;28;7377;-68
2023/08/23 02:56:13;;;;;;;;;;;;;;;;;;1889116;28;7308;-68
2023/08/23 02:57:11;;;;;;;;;;;;;;;;;;1884016;28;7014;-68
2023/08/23 02:58:08;;;;;;;;;;;;;;;;;;1877166;28;7409;-70
2023/08/23 02:59:05;;;;;;;;;;;;;;;;;;1877958;28;7010;-68
2023/08/23 03:00:03;;;;;;;;;;;;;;;;;;1888435;28;7311;-69
2023/08/23 03:01:02;;;;;;;;;;;;;;;;;;1889016;28;7074;-68
2023/08/23 03:02:00;;;;;;;;;;;;;;;;;;1889528;28;7093;-68
2023/08/23 03:02:57;;;;;;;;;;;;;;;;;;1888789;28;7092;-69
2023/08/23 03:03:55;;;;;;;;;;;;;;;;;;1888941;28;7093;-69
2023/08/23 03:04:52;;;;;;;;;;;;;;;;;;1881977;28;7150;-71
2023/08/23 03:05:55;;;;;;;;;;;;;;;;;;1882428;28;7010;-68
2023/08/23 03:06:52;;;;;;;;;;;;;;;;;;1880982;28;8017;-69
2023/08/23 03:07:50;;;;;;;;;;;;;;;;;;1882335;28;7038;-70
2023/08/23 03:08:47;;;;;;;;;;;;;;;;;;1880923;28;7096;-68
2023/08/23 03:09:45;;;;;;;;;;;;;;;;;;1881997;28;7025;-68
2023/08/23 03:10:42;;;;;;;;;;;;;;;;;;1881908;28;7017;-68
2023/08/23 03:11:39;;;;;;;;;;;;;;;;;;1882120;28;7009;-69
2023/08/23 03:12:37;;;;;;;;;;;;;;;;;;1882051;28;7161;-69
2023/08/23 03:13:34;;;;;;;;;;;;;;;;;;1880968;28;8066;-68
2023/08/23 03:14:32;;;;;;;;;;;;;;;;;;1882291;28;7014;-68
2023/08/23 03:15:30;;;;;;;;;;;;;;;;;;1880557;28;7017;-68
2023/08/23 03:16:27;;;;;;;;;;;;;;;;;;1881607;28;7018;-69
2023/08/23 03:17:25;;;;;;;;;;;;;;;;;;1882308;28;7006;-68
2023/08/23 03:18:22;;;;;;;;;;;;;;;;;;1879452;28;7010;-70
2023/08/23 03:19:19;;;;;;;;;;;;;;;;;;1881737;28;8036;-68
2023/08/23 03:20:17;;;;;;;;;;;;;;;;;;1882205;28;7010;-68
2023/08/23 03:21:14;;;;;;;;;;;;;;;;;;1882684;28;7067;-69
2023/08/23 03:22:12;;;;;;;;;;;;;;;;;;1881208;28;7065;-68
2023/08/23 03:23:09;;;;;;;;;;;;;;;;;;1882046;28;7017;-69
2023/08/23 03:24:07;;;;;;;;;;;;;;;;;;1882184;28;7014;-69
2023/08/23 03:25:04;;;;;;;;;;;;;;;;;;1882342;28;7139;-68
2023/08/23 03:26:02;;;;;;;;;;;;;;;;;;1882582;28;7006;-68
2023/08/23 03:26:59;;;;;;;;;;;;;;;;;;1882002;28;7006;-68
2023/08/23 03:27:57;;;;;;;;;;;;;;;;;;1882553;28;7141;-69
2023/08/23 03:28:54;;;;;;;;;;;;;;;;;;1882692;28;7010;-69
2023/08/23 03:29:52;;;;;;;;;;;;;;;;;;1882189;28;7010;-70
2023/08/23 03:30:49;;;;;;;;;;;;;;;;;;1882676;28;7006;-68
2023/08/23 03:31:47;;;;;;;;;;;;;;;;;;1881638;28;7009;-70
2023/08/23 03:32:45;;;;;;;;;;;;;;;;;;1879489;28;8100;-68
2023/08/23 03:33:42;;;;;;;;;;;;;;;;;;1870941;28;7089;-69
2023/08/23 03:34:40;;;;;;;;;;;;;;;;;;1874690;28;7014;-69
2023/08/23 03:35:37;;;;;;;;;;;;;;;;;;1879035;28;8028;-69
2023/08/23 03:36:35;;;;;;;;;;;;;;;;;;1882147;28;7105;-70
2023/08/23 03:37:32;;;;;;;;;;;;;;;;;;1881804;28;7042;-70
2023/08/23 03:38:29;;;;;;;;;;;;;;;;;;1882272;28;7093;-69
2023/08/23 03:39:27;;;;;;;;;;;;;;;;;;1882467;28;7109;-70
2023/08/23 03:40:24;;;;;;;;;;;;;;;;;;1881424;28;7006;-68
2023/08/23 03:41:22;;;;;;;;;;;;;;;;;;1883057;28;7117;-70
2023/08/23 03:42:19;;;;;;;;;;;;;;;;;;1881660;28;7018;-68
2023/08/23 03:43:16;;;;;;;;;;;;;;;;;;1882234;28;7117;-69
2023/08/23 03:44:14;;;;;;;;;;;;;;;;;;1882349;28;7005;-69
2023/08/23 03:45:11;;;;;;;;;;;;;;;;;;1882281;28;7117;-68
2023/08/23 03:46:09;;;;;;;;;;;;;;;;;;1882170;28;7006;-68
2023/08/23 03:47:06;;;;;;;;;;;;;;;;;;1882251;28;7096;-69
2023/08/23 03:48:05;;;;;;;;;;;;;;;;;;1880032;28;7038;-68
2023/08/23 03:49:03;;;;;;;;;;;;;;;;;;1882162;28;7025;-68
2023/08/23 03:50:00;;;;;;;;;;;;;;;;;;1882272;28;7054;-71
2023/08/23 03:50:59;;;;;;;;;;;;;;;;;;1882520;28;7030;-69
2023/08/23 03:51:56;;;;;;;;;;;;;;;;;;1882303;28;8080;-68
2023/08/23 03:52:54;;;;;;;;;;;;;;;;;;1882118;28;7038;-68
2023/08/23 03:53:51;;;;;;;;;;;;;;;;;;1882126;28;7173;-68
2023/08/23 03:54:48;;;;;;;;;;;;;;;;;;1882661;28;7062;-68
2023/08/23 03:55:50;;;;;;;;;;;;;;;;;;1882217;28;7009;-70
2023/08/23 03:56:48;;;;;;;;;;;;;;;;;;1882002;28;7013;-69
2023/08/23 03:57:45;;;;;;;;;;;;;;;;;;1882039;28;7014;-69
2023/08/23 03:58:43;;;;;;;;;;;;;;;;;;1882223;28;8035;-69
2023/08/23 03:59:40;;;;;;;;;;;;;;;;;;1874701;29;7005;-68
2023/08/23 04:00:38;;;;;;;;;;;;;;;;;;1873371;29;8093;-69
2023/08/23 04:01:35;;;;;;;;;;;;;;;;;;1881193;28;7014;-69
2023/08/23 04:02:33;;;;;;;;;;;;;;;;;;1882917;28;7130;-71
2023/08/23 04:03:30;;;;;;;;;;;;;;;;;;1882118;28;7129;-70
2023/08/23 04:04:28;;;;;;;;;;;;;;;;;;1886388;28;7332;-69
2023/08/23 04:05:25;;;;;;;;;;;;;;;;;;1881187;28;7014;-71
2023/08/23 04:06:23;;;;;;;;;;;;;;;;;;1872093;28;7089;-69
2023/08/23 04:07:20;;;;;;;;;;;;;;;;;;1880165;28;7014;-70
2023/08/23 04:08:18;;;;;;;;;;;;;;;;;;1889833;28;7010;-69
2023/08/23 04:09:15;;;;;;;;;;;;;;;;;;1887082;28;7010;-69
2023/08/23 04:10:14;;;;;;;;;;;;;;;;;;1890755;28;7224;-68
2023/08/23 04:11:12;;;;;;;;;;;;;;;;;;1890494;28;7046;-68
2023/08/23 04:12:09;;;;;;;;;;;;;;;;;;1890439;28;7153;-70
2023/08/23 04:13:07;;;;;;;;;;;;;;;;;;1891070;28;7022;-69
2023/08/23 04:14:04;;;;;;;;;;;;;;;;;;1889398;28;7372;-68
2023/08/23 04:15:02;;;;;;;;;;;;;;;;;;1890527;28;7105;-69
2023/08/23 04:16:00;;;;;;;;;;;;;;;;;;1890912;28;8116;-70
2023/08/23 04:16:59;;;;;;;;;;;;;;;;;;1891255;28;7009;-68
2023/08/23 04:17:57;;;;;;;;;;;;;;;;;;1887373;28;7078;-73
2023/08/23 04:18:54;;;;;;;;;;;;;;;;;;1890627;28;7158;-68
2023/08/23 04:19:52;;;;;;;;;;;;;;;;;;1875089;28;9222;-69
2023/08/23 04:21:00;;;;;;;;;;;;;;;;;;1875503;28;7125;-69
2023/08/23 04:21:57;;;;;;;;;;;;;;;;;;1890207;28;7048;-70
2023/08/23 04:22:54;;;;;;;;;;;;;;;;;;1890791;28;7010;-69
2023/08/23 04:23:52;;;;;;;;;;;;;;;;;;1886482;28;7237;-68
2023/08/23 04:24:51;;;;;;;;;;;;;;;;;;1891907;28;7006;-68
2023/08/23 04:25:48;;;;;;;;;;;;;;;;;;1890925;28;7006;-71
2023/08/23 04:26:46;;;;;;;;;;;;;;;;;;1891093;28;7013;-68
2023/08/23 04:27:43;;;;;;;;;;;;;;;;;;1890631;28;7088;-69
2023/08/23 04:28:42;;;;;;;;;;;;;;;;;;1886838;28;7026;-69
2023/08/23 04:29:39;;;;;;;;;;;;;;;;;;1890880;28;7101;-72
2023/08/23 04:30:38;;;;;;;;;;;;;;;;;;1890892;28;7351;-69
2023/08/23 04:31:35;;;;;;;;;;;;;;;;;;1891646;28;7105;-69
2023/08/23 04:32:32;;;;;;;;;;;;;;;;;;1890638;28;7049;-70
2023/08/23 04:33:30;;;;;;;;;;;;;;;;;;1886309;28;7010;-68
2023/08/23 04:34:28;;;;;;;;;;;;;;;;;;1890488;28;7014;-70
2023/08/23 04:35:25;;;;;;;;;;;;;;;;;;1890539;28;7113;-70
2023/08/23 04:36:23;;;;;;;;;;;;;;;;;;1890555;28;7385;-69
2023/08/23 04:37:20;;;;;;;;;;;;;;;;;;1890838;28;7021;-69
2023/08/23 04:38:17;;;;;;;;;;;;;;;;;;1890792;28;7100;-70
2023/08/23 04:39:15;;;;;;;;;;;;;;;;;;1890341;28;7092;-70
2023/08/23 04:40:12;;;;;;;;;;;;;;;;;;1890839;28;7017;-68
2023/08/23 04:41:10;;;;;;;;;;;;;;;;;;1890562;28;8088;-70
2023/08/23 04:42:07;;;;;;;;;;;;;;;;;;1890207;28;7014;-69
2023/08/23 04:43:05;;;;;;;;;;;;;;;;;;1888714;28;7046;-68
2023/08/23 04:44:02;;;;;;;;;;;;;;;;;;1882805;28;7006;-69
2023/08/23 04:45:00;;;;;;;;;;;;;;;;;;1882970;28;7096;-69
2023/08/23 04:45:58;;;;;;;;;;;;;;;;;;1889906;28;7013;-69
2023/08/23 04:46:57;;;;;;;;;;;;;;;;;;1888367;28;7771;-69
2023/08/23 04:47:55;;;;;;;;;;;;;;;;;;1886483;28;7018;-70
2023/08/23 04:48:52;;;;;;;;;;;;;;;;;;1889134;28;7013;-68
2023/08/23 04:49:50;;;;;;;;;;;;;;;;;;1890261;28;7018;-68
2023/08/23 04:50:51;;;;;;;;;;;;;;;;;;1890508;28;8102;-70
2023/08/23 04:51:48;;;;;;;;;;;;;;;;;;1891101;28;7063;-69
2023/08/23 04:52:46;;;;;;;;;;;;;;;;;;1889950;28;7013;-68
2023/08/23 04:53:43;;;;;;;;;;;;;;;;;;1890422;28;7014;-68
2023/08/23 04:54:41;;;;;;;;;;;;;;;;;;1890296;28;7009;-69
2023/08/23 04:55:38;;;;;;;;;;;;;;;;;;1890120;28;7113;-69
2023/08/23 04:56:36;;;;;;;;;;;;;;;;;;1890494;28;7116;-69
2023/08/23 04:57:33;;;;;;;;;;;;;;;;;;1890309;28;7117;-68
2023/08/23 04:58:31;;;;;;;;;;;;;;;;;;1889903;28;7030;-68
2023/08/23 04:59:28;;;;;;;;;;;;;;;;;;1890019;28;7311;-69
2023/08/23 05:00:26;;;;;;;;;;;;;;;;;;1890698;28;7126;-69
2023/08/23 05:01:24;;;;;;;;;;;;;;;;;;1889948;28;7009;-68
2023/08/23 05:02:21;;;;;;;;;;;;;;;;;;1890009;28;7100;-69
2023/08/23 05:03:19;;;;;;;;;;;;;;;;;;1890235;28;7042;-70
2023/08/23 05:04:18;;;;;;;;;;;;;;;;;;1889690;28;7010;-69
2023/08/23 05:05:15;;;;;;;;;;;;;;;;;;1887353;28;7006;-68
2023/08/23 05:06:12;;;;;;;;;;;;;;;;;;1891156;28;7113;-69
2023/08/23 05:07:10;;;;;;;;;;;;;;;;;;1890123;28;7006;-68
2023/08/23 05:08:07;;;;;;;;;;;;;;;;;;1890204;28;7005;-69
2023/08/23 05:09:05;;;;;;;;;;;;;;;;;;1890535;28;7009;-68
2023/08/23 05:10:04;;;;;;;;;;;;;;;;;;1890383;28;7037;-67
2023/08/23 05:11:01;;;;;;;;;;;;;;;;;;1889902;28;7042;-68
2023/08/23 05:11:59;;;;;;;;;;;;;;;;;;1889900;28;7010;-69
2023/08/23 05:12:57;;;;;;;;;;;;;;;;;;1890119;28;7088;-69
2023/08/23 05:13:55;;;;;;;;;;;;;;;;;;1890387;28;7110;-70
2023/08/23 05:14:52;;;;;;;;;;;;;;;;;;1885691;28;7089;-69
2023/08/23 05:15:56;;;;;;;;;;;;;;;;;;1883818;28;7042;-69
2023/08/23 05:16:54;;;;;;;;;;;;;;;;;;1879852;28;7105;-69
2023/08/23 05:17:52;;;;;;;;;;;;;;;;;;1878354;28;7002;-69
2023/08/23 05:18:49;;;;;;;;;;;;;;;;;;1888710;28;7093;-69
2023/08/23 05:19:47;;;;;;;;;;;;;;;;;;1890562;28;7009;-70
2023/08/23 05:20:44;;;;;;;;;;;;;;;;;;1889348;28;7006;-69
2023/08/23 05:21:42;;;;;;;;;;;;;;;;;;1889947;28;7097;-70
2023/08/23 05:22:39;;;;;;;;;;;;;;;;;;1889719;28;7104;-69
2023/08/23 05:23:36;;;;;;;;;;;;;;;;;;1889997;28;7005;-68
2023/08/23 05:24:34;;;;;;;;;;;;;;;;;;1889784;28;7013;-68
2023/08/23 05:25:32;;;;;;;;;;;;;;;;;;1890393;28;7010;-68
2023/08/23 05:26:29;;;;;;;;;;;;;;;;;;1889233;28;7002;-69
2023/08/23 05:27:27;;;;;;;;;;;;;;;;;;1889988;28;7010;-69
2023/08/23 05:28:24;;;;;;;;;;;;;;;;;;1882012;28;7039;-69
2023/08/23 05:29:22;;;;;;;;;;;;;;;;;;1882059;28;7096;-69
2023/08/23 05:30:19;;;;;;;;;;;;;;;;;;1888844;28;7100;-68
2023/08/23 05:31:17;;;;;;;;;;;;;;;;;;1890373;28;7045;-69
2023/08/23 05:32:14;;;;;;;;;;;;;;;;;;1888995;28;7034;-69
2023/08/23 05:33:12;;;;;;;;;;;;;;;;;;1890596;28;7010;-68
2023/08/23 05:34:10;;;;;;;;;;;;;;;;;;1890965;28;7038;-68
2023/08/23 05:35:07;;;;;;;;;;;;;;;;;;1888214;28;7018;-68
2023/08/23 05:36:05;;;;;;;;;;;;;;;;;;1889103;28;7046;-68
2023/08/23 05:37:02;;;;;;;;;;;;;;;;;;1890006;28;7372;-68
2023/08/23 05:38:00;;;;;;;;;;;;;;;;;;1889745;28;7100;-68
2023/08/23 05:39:01;;;;;;;;;;;;;;;;;;1890474;28;7013;-69
2023/08/23 05:39:58;;;;;;;;;;;;;;;;;;1889864;28;7332;-68
2023/08/23 05:40:56;;;;;;;;;;;;;;;;;;1890494;28;7006;-69
2023/08/23 05:41:53;;;;;;;;;;;;;;;;;;1889416;28;7127;-68
2023/08/23 05:42:51;;;;;;;;;;;;;;;;;;1887829;28;7014;-68
2023/08/23 05:43:49;;;;;;;;;;;;;;;;;;1889753;28;7006;-68
2023/08/23 05:44:46;;;;;;;;;;;;;;;;;;1889861;28;7093;-68
2023/08/23 05:45:44;;;;;;;;;;;;;;;;;;1890055;28;7009;-68
2023/08/23 05:46:42;;;;;;;;;;;;;;;;;;1890275;28;7005;-68
2023/08/23 05:47:39;;;;;;;;;;;;;;;;;;1885733;28;7109;-69
2023/08/23 05:48:37;;;;;;;;;;;;;;;;;;1889178;28;7017;-70
2023/08/23 05:49:34;;;;;;;;;;;;;;;;;;1889946;28;7046;-69
2023/08/23 05:50:31;;;;;;;;;;;;;;;;;;1890176;28;7096;-69
2023/08/23 05:51:29;;;;;;;;;;;;;;;;;;1889767;28;9364;-69
2023/08/23 05:52:26;;;;;;;;;;;;;;;;;;1890099;28;7432;-68
2023/08/23 05:53:24;;;;;;;;;;;;;;;;;;1889001;28;7018;-68
2023/08/23 05:54:23;;;;;;;;;;;;;;;;;;1890509;28;8092;-68
2023/08/23 05:55:20;;;;;;;;;;;;;;;;;;1890508;28;7113;-70
2023/08/23 05:56:17;;;;;;;;;;;;;;;;;;1889883;28;7348;-68
2023/08/23 05:57:15;;;;;;;;;;;;;;;;;;1890437;28;7014;-70
2023/08/23 05:58:13;;;;;;;;;;;;;;;;;;1888872;28;7096;-70
2023/08/23 05:59:10;;;;;;;;;;;;;;;;;;1889934;28;7010;-69
2023/08/23 06:00:09;;;;;;;;;;;;;;;;;;1889696;28;7121;-69
2023/08/23 06:01:06;;;;;;;;;;;;;;;;;;1889915;28;7108;-69
2023/08/23 06:02:04;;;;;;;;;;;;;;;;;;1890187;28;7101;-70
2023/08/23 06:03:01;;;;;;;;;;;;;;;;;;1890427;28;7014;-69
2023/08/23 06:03:59;;;;;;;;;;;;;;;;;;1888901;28;7013;-68
2023/08/23 06:04:57;;;;;;;;;;;;;;;;;;1887417;28;7005;-69
2023/08/23 06:05:55;;;;;;;;;;;;;;;;;;1889842;28;7365;-69
2023/08/23 06:06:52;;;;;;;;;;;;;;;;;;1889718;28;7088;-69
2023/08/23 06:07:49;;;;;;;;;;;;;;;;;;1890134;28;7010;-68
2023/08/23 06:08:47;;;;;;;;;;;;;;;;;;1889547;28;7093;-69
2023/08/23 06:09:44;;;;;;;;;;;;;;;;;;1881778;28;7006;-70
2023/08/23 06:10:42;;;;;;;;;;;;;;;;;;1880472;28;7050;-69
2023/08/23 06:11:39;;;;;;;;;;;;;;;;;;1889180;28;7009;-68
2023/08/23 06:12:37;;;;;;;;;;;;;;;;;;1890221;28;8029;-69
2023/08/23 06:13:35;;;;;;;;;;;;;;;;;;1889190;28;7025;-68
2023/08/23 06:14:32;;;;;;;;;;;;;;;;;;1889711;28;7109;-70
2023/08/23 06:15:30;;;;;;;;;;;;;;;;;;1890346;28;8040;-69
2023/08/23 06:16:27;;;;;;;;;;;;;;;;;;1889384;28;7009;-69
2023/08/23 06:17:25;;;;;;;;;;;;;;;;;;1889918;28;7017;-68
2023/08/23 06:18:23;;;;;;;;;;;;;;;;;;1885249;28;7017;-69
2023/08/23 06:19:20;;;;;;;;;;;;;;;;;;1889731;28;7009;-70
2023/08/23 06:20:17;;;;;;;;;;;;;;;;;;1889751;28;7018;-69
2023/08/23 06:21:15;;;;;;;;;;;;;;;;;;1889755;28;7010;-69
2023/08/23 06:22:17;;;;;;;;;;;;;;;;;;1890194;28;7109;-69
2023/08/23 06:23:14;;;;;;;;;;;;;;;;;;1890026;28;7152;-69
2023/08/23 06:24:12;;;;;;;;;;;;;;;;;;1889973;28;7108;-69
2023/08/23 06:25:09;;;;;;;;;;;;;;;;;;1889674;28;8109;-68
2023/08/23 06:26:08;;;;;;;;;;;;;;;;;;1889271;28;7092;-68
2023/08/23 06:27:05;;;;;;;;;;;;;;;;;;1889612;28;7113;-70
2023/08/23 06:28:04;;;;;;;;;;;;;;;;;;1889523;28;7089;-70
2023/08/23 06:29:03;;;;;;;;;;;;;;;;;;1889335;28;7006;-69
2023/08/23 06:30:02;;;;;;;;;;;;;;;;;;1890491;28;7109;-68
2023/08/23 06:30:59;;;;;;;;;;;;;;;;;;1890242;28;7018;-69
2023/08/23 06:31:57;;;;;;;;;;;;;;;;;;1889490;28;7013;-70
2023/08/23 06:32:55;;;;;;;;;;;;;;;;;;1889599;28;7304;-70
2023/08/23 06:33:53;;;;;;;;;;;;;;;;;;1890170;28;7005;-69
2023/08/23 06:34:52;;;;;;;;;;;;;;;;;;1885976;28;7002;-68
2023/08/23 06:35:50;;;;;;;;;;;;;;;;;;1889736;28;7128;-69
2023/08/23 06:36:47;;;;;;;;;;;;;;;;;;1889261;28;7038;-70
2023/08/23 06:37:45;;;;;;;;;;;;;;;;;;1889940;28;7018;-68
2023/08/23 06:38:44;;;;;;;;;;;;;;;;;;1888468;28;7013;-68
2023/08/23 06:39:41;;;;;;;;;;;;;;;;;;1889786;28;7010;-69
2023/08/23 06:40:40;;;;;;;;;;;;;;;;;;1889679;28;7006;-69
2023/08/23 06:41:37;;;;;;;;;;;;;;;;;;1881222;28;8768;-69
2023/08/23 06:42:35;;;;;;;;;;;;;;;;;;1881652;28;8040;-69
2023/08/23 06:43:32;;;;;;;;;;;;;;;;;;1889311;28;7088;-69
2023/08/23 06:44:30;;;;;;;;;;;;;;;;;;1889564;28;7251;-68